Time,TemperatureF,DewpointF,PressureIn,WindDirection,WindDirectionDegrees,WindSpeedMPH,WindSpeedGustMPH,Humidity,HourlyPrecipIn,Conditions,Clouds,dailyrainin,SoftwareType,DateUTC
2013-10-29 00:05:00,39.2,29.1,30.41,NE,46,1.1,3.0,57,0.00,NA,NA,0.00,meteo_script,2013-10-29 05:05:00,
2013-10-29 00:35:00,39.2,29.4,30.42,ENE,69,1.5,4.0,58,0.00,NA,NA,0.00,meteo_script,2013-10-29 05:35:00,
2013-10-29 01:05:00,39.0,29.4,30.42,ENE,64,0.8,2.0,58,0.00,NA,NA,0.00,meteo_script,2013-10-29 06:05:00,
2013-10-29 01:35:00,38.8,29.6,30.42,ENE,78,2.2,5.0,60,0.00,NA,NA,0.00,meteo_script,2013-10-29 06:35:00,
2013-10-29 02:05:00,38.9,29.7,30.41,NNE,18,0.9,2.0,60,0.00,NA,NA,0.00,meteo_script,2013-10-29 07:05:00,
2013-10-29 02:35:00,38.9,30.0,30.42,ENE,64,0.7,3.0,61,0.00,NA,NA,0.00,meteo_script,2013-10-29 07:35:00,
2013-10-29 03:05:00,38.8,29.9,30.41,ENE,62,0.3,2.0,61,0.00,NA,NA,0.00,meteo_script,2013-10-29 08:05:00,
2013-10-29 03:35:00,38.7,30.1,30.42,ENE,57,0.2,1.0,62,0.00,NA,NA,0.00,meteo_script,2013-10-29 08:35:00,
2013-10-29 04:05:00,38.5,30.2,30.41,NE,52,0.4,2.0,63,0.00,NA,NA,0.00,meteo_script,2013-10-29 09:05:00,
2013-10-29 04:35:00,38.5,30.4,30.39,ENE,67,0.6,2.0,64,0.00,NA,NA,0.00,meteo_script,2013-10-29 09:35:00,
2013-10-29 05:05:00,38.4,30.6,30.40,East,93,0.5,2.0,65,0.00,NA,NA,0.00,meteo_script,2013-10-29 10:05:00,
2013-10-29 05:35:00,38.5,30.7,30.40,East,90,0.6,2.0,65,0.00,NA,NA,0.00,meteo_script,2013-10-29 10:35:00,
2013-10-29 06:05:00,38.3,30.6,30.40,ENE,66,0.4,2.0,65,0.00,NA,NA,0.00,meteo_script,2013-10-29 11:05:00,
2013-10-29 06:35:00,38.1,30.8,30.39,North,0,0.0,0.0,67,0.00,NA,NA,0.00,meteo_script,2013-10-29 11:35:00,
2013-10-29 07:05:00,37.9,31.0,30.40,ENE,72,1.3,7.0,68,0.00,NA,NA,0.00,meteo_script,2013-10-29 12:05:00,
2013-10-29 07:35:00,37.7,31.0,30.38,ENE,72,1.4,3.0,69,0.00,NA,NA,0.00,meteo_script,2013-10-29 12:35:00,
2013-10-29 08:05:00,37.8,31.4,30.38,ENE,67,1.8,5.0,70,0.00,NA,NA,0.00,meteo_script,2013-10-29 13:05:00,
2013-10-29 08:35:00,38.0,31.8,30.38,NE,56,0.6,2.0,71,0.00,NA,NA,0.00,meteo_script,2013-10-29 13:35:00,
2013-10-29 09:05:00,38.9,32.4,30.38,NE,56,0.6,2.0,70,0.00,NA,NA,0.00,meteo_script,2013-10-29 14:05:00,
2013-10-29 09:35:00,40.0,33.4,30.38,East,92,1.6,4.0,69,0.00,NA,NA,0.00,meteo_script,2013-10-29 14:35:00,
2013-10-29 10:05:00,40.9,34.1,30.39,ENE,67,1.5,4.0,69,0.00,NA,NA,0.00,meteo_script,2013-10-29 15:05:00,
2013-10-29 10:35:00,42.5,35.6,30.37,East,82,0.9,3.0,69,0.00,NA,NA,0.00,meteo_script,2013-10-29 15:35:00,
2013-10-29 11:05:00,44.6,37.1,30.36,East,91,2.2,4.0,67,0.00,NA,NA,0.00,meteo_script,2013-10-29 16:05:00,
2013-10-29 11:35:00,47.0,39.1,30.34,ENE,65,1.5,5.0,66,0.00,NA,NA,0.00,meteo_script,2013-10-29 16:35:00,
2013-10-29 12:05:00,48.1,39.7,30.33,ENE,74,0.1,1.0,65,0.00,NA,NA,0.00,meteo_script,2013-10-29 17:05:00,
2013-10-29 12:35:00,49.6,40.7,30.32,ESE,113,0.7,3.0,63,0.00,NA,NA,0.00,meteo_script,2013-10-29 17:35:00,
2013-10-29 13:05:00,50.1,40.8,30.32,SE,129,0.6,2.0,62,0.00,NA,NA,0.00,meteo_script,2013-10-29 18:05:00,
2013-10-29 13:35:00,50.6,41.0,30.30,ENE,72,2.2,4.0,61,0.00,NA,NA,0.00,meteo_script,2013-10-29 18:35:00,
2013-10-29 14:05:00,50.9,41.4,30.29,ENE,72,0.0,1.0,61,0.00,NA,NA,0.00,meteo_script,2013-10-29 19:05:00,
2013-10-29 14:35:00,51.7,41.4,30.28,ESE,119,0.1,1.0,59,0.00,NA,NA,0.00,meteo_script,2013-10-29 19:35:00,
2013-10-29 15:05:00,51.4,41.3,30.27,ESE,107,0.9,3.0,60,0.00,NA,NA,0.00,meteo_script,2013-10-29 20:05:00,
2013-10-29 15:35:00,51.5,41.6,30.24,North,0,0.0,0.0,60,0.00,NA,NA,0.00,meteo_script,2013-10-29 20:35:00,
2013-10-29 16:05:00,51.5,41.8,30.24,North,0,0.0,0.0,61,0.00,NA,NA,0.00,meteo_script,2013-10-29 21:05:00,
2013-10-29 16:35:00,51.8,42.0,30.24,ENE,62,1.2,5.0,60,0.00,NA,NA,0.00,meteo_script,2013-10-29 21:35:00,
2013-10-29 17:05:00,51.4,41.5,30.22,ENE,66,1.1,3.0,60,0.00,NA,NA,0.00,meteo_script,2013-10-29 22:05:00,
2013-10-29 17:35:00,50.8,41.4,30.22,ENE,63,0.8,3.0,62,0.00,NA,NA,0.00,meteo_script,2013-10-29 22:35:00,
2013-10-29 18:05:00,50.4,41.3,30.21,ENE,63,0.2,1.0,63,0.00,NA,NA,0.00,meteo_script,2013-10-29 23:05:00,
2013-10-29 18:35:00,49.5,41.1,30.20,ENE,68,0.7,2.0,64,0.00,NA,NA,0.00,meteo_script,2013-10-29 23:35:00,
2013-10-29 19:05:00,48.9,40.8,30.21,ENE,64,0.4,3.0,66,0.00,NA,NA,0.00,meteo_script,2013-10-30 00:05:00,
2013-10-29 19:35:00,48.7,41.5,30.21,ENE,64,0.4,2.0,68,0.00,NA,NA,0.00,meteo_script,2013-10-30 00:35:00,
2013-10-29 20:05:00,47.6,40.4,30.21,East,87,0.5,2.0,69,0.00,NA,NA,0.00,meteo_script,2013-10-30 01:05:00,
2013-10-29 20:35:00,46.7,40.1,30.20,ENE,75,2.7,5.0,71,0.00,NA,NA,0.00,meteo_script,2013-10-30 01:35:00,
2013-10-29 21:05:00,46.6,40.3,30.20,ENE,73,2.9,6.0,72,0.00,NA,NA,0.00,meteo_script,2013-10-30 02:05:00,
2013-10-29 21:35:00,46.9,40.6,30.20,ENE,78,0.7,3.0,72,0.00,NA,NA,0.00,meteo_script,2013-10-30 02:35:00,
2013-10-29 22:05:00,46.9,40.5,30.19,SSE,159,0.9,4.0,71,0.00,NA,NA,0.00,meteo_script,2013-10-30 03:05:00,
2013-10-29 22:35:00,46.8,40.6,30.20,SSE,166,0.0,1.0,72,0.00,NA,NA,0.00,meteo_script,2013-10-30 03:35:00,
2013-10-29 23:05:00,46.3,40.5,30.20,SSW,200,1.0,4.0,74,0.00,NA,NA,0.00,meteo_script,2013-10-30 04:05:00,
2013-10-29 23:35:00,46.4,40.9,30.19,ESE,117,0.8,2.0,75,0.00,NA,NA,0.00,meteo_script,2013-10-30 04:35:00,